sensor_id;sensor_type;location;lat;lon;timestamp;P1;durP1;ratioP1;P2;durP2;ratioP2
79662;SDS011;69130;48.724;8.982;2023-04-29T00:00:45;4.45;;;2.13;;
79662;SDS011;69130;48.724;8.982;2023-04-29T00:03:10;3.75;;;2.03;;
79662;SDS011;69130;48.724;8.982;2023-04-29T00:05:36;3.00;;;1.73;;
79662;SDS011;69130;48.724;8.982;2023-04-29T00:08:02;7.95;;;2.25;;
79662;SDS011;69130;48.724;8.982;2023-04-29T00:10:27;3.22;;;1.73;;
79662;SDS011;69130;48.724;8.982;2023-04-29T00:12:53;5.00;;;2.30;;
79662;SDS011;69130;48.724;8.982;2023-04-29T00:15:18;4.90;;;2.10;;
79662;SDS011;69130;48.724;8.982;2023-04-29T00:17:43;5.53;;;2.17;;
79662;SDS011;69130;48.724;8.982;2023-04-29T00:20:10;5.28;;;2.28;;
79662;SDS011;69130;48.724;8.982;2023-04-29T00:22:36;5.00;;;2.17;;
79662;SDS011;69130;48.724;8.982;2023-04-29T00:25:02;5.90;;;2.13;;
79662;SDS011;69130;48.724;8.982;2023-04-29T00:27:28;3.50;;;1.80;;
79662;SDS011;69130;48.724;8.982;2023-04-29T00:29:53;4.25;;;2.15;;
79662;SDS011;69130;48.724;8.982;2023-04-29T00:32:19;3.97;;;2.05;;
79662;SDS011;69130;48.724;8.982;2023-04-29T00:34:44;6.50;;;2.73;;
79662;SDS011;69130;48.724;8.982;2023-04-29T00:37:10;3.72;;;1.83;;
79662;SDS011;69130;48.724;8.982;2023-04-29T00:39:35;3.13;;;1.58;;
79662;SDS011;69130;48.724;8.982;2023-04-29T00:42:01;4.50;;;2.03;;
79662;SDS011;69130;48.724;8.982;2023-04-29T00:44:27;4.57;;;2.13;;
79662;SDS011;69130;48.724;8.982;2023-04-29T00:46:52;3.20;;;1.50;;
79662;SDS011;69130;48.724;8.982;2023-04-29T00:49:18;2.80;;;1.75;;
79662;SDS011;69130;48.724;8.982;2023-04-29T00:51:44;4.18;;;1.73;;
79662;SDS011;69130;48.724;8.982;2023-04-29T00:54:09;3.33;;;1.73;;
79662;SDS011;69130;48.724;8.982;2023-04-29T00:56:36;3.25;;;1.52;;
79662;SDS011;69130;48.724;8.982;2023-04-29T00:59:03;2.38;;;1.15;;
79662;SDS011;69130;48.724;8.982;2023-04-29T01:01:29;2.85;;;1.35;;
79662;SDS011;69130;48.724;8.982;2023-04-29T01:03:55;3.30;;;1.58;;
79662;SDS011;69130;48.724;8.982;2023-04-29T01:11:52;2.88;;;1.05;;
79662;SDS011;69130;48.724;8.982;2023-04-29T01:14:26;4.55;;;1.98;;
79662;SDS011;69130;48.724;8.982;2023-04-29T01:16:52;2.65;;;1.25;;
79662;SDS011;69130;48.724;8.982;2023-04-29T01:22:19;5.00;;;1.38;;
79662;SDS011;69130;48.724;8.982;2023-04-29T01:24:45;4.03;;;1.70;;
79662;SDS011;69130;48.724;8.982;2023-04-29T01:27:32;3.00;;;1.35;;
79662;SDS011;69130;48.724;8.982;2023-04-29T01:32:33;2.53;;;1.10;;
79662;SDS011;69130;48.724;8.982;2023-04-29T01:36:11;3.25;;;1.60;;
79662;SDS011;69130;48.724;8.982;2023-04-29T01:40:58;3.80;;;1.80;;
79662;SDS011;69130;48.724;8.982;2023-04-29T01:43:29;3.00;;;1.33;;
79662;SDS011;69130;48.724;8.982;2023-04-29T01:45:56;3.00;;;1.52;;
79662;SDS011;69130;48.724;8.982;2023-04-29T01:48:23;2.50;;;1.30;;
79662;SDS011;69130;48.724;8.982;2023-04-29T01:50:48;2.85;;;1.42;;
79662;SDS011;69130;48.724;8.982;2023-04-29T01:53:13;2.67;;;1.30;;
79662;SDS011;69130;48.724;8.982;2023-04-29T01:55:39;3.63;;;1.27;;
79662;SDS011;69130;48.724;8.982;2023-04-29T01:58:05;2.92;;;1.48;;
79662;SDS011;69130;48.724;8.982;2023-04-29T02:00:30;2.92;;;1.60;;
79662;SDS011;69130;48.724;8.982;2023-04-29T02:02:55;2.88;;;1.63;;
79662;SDS011;69130;48.724;8.982;2023-04-29T02:05:21;2.90;;;1.47;;
79662;SDS011;69130;48.724;8.982;2023-04-29T02:07:46;2.77;;;1.10;;
79662;SDS011;69130;48.724;8.982;2023-04-29T02:10:11;3.17;;;1.73;;
79662;SDS011;69130;48.724;8.982;2023-04-29T02:12:37;1.92;;;0.95;;
79662;SDS011;69130;48.724;8.982;2023-04-29T02:15:03;3.25;;;1.42;;
79662;SDS011;69130;48.724;8.982;2023-04-29T02:24:04;2.38;;;1.35;;
79662;SDS011;69130;48.724;8.982;2023-04-29T02:30:30;3.20;;;1.45;;
79662;SDS011;69130;48.724;8.982;2023-04-29T02:37:01;3.03;;;1.30;;
79662;SDS011;69130;48.724;8.982;2023-04-29T02:53:42;3.33;;;1.35;;
79662;SDS011;69130;48.724;8.982;2023-04-29T03:00:21;3.58;;;1.40;;
79662;SDS011;69130;48.724;8.982;2023-04-29T03:10:18;2.97;;;1.83;;
79662;SDS011;69130;48.724;8.982;2023-04-29T03:17:01;2.83;;;1.45;;
79662;SDS011;69130;48.724;8.982;2023-04-29T03:20:04;3.50;;;1.58;;
79662;SDS011;69130;48.724;8.982;2023-04-29T03:23:02;2.20;;;1.00;;
79662;SDS011;69130;48.724;8.982;2023-04-29T03:31:52;2.55;;;1.35;;
79662;SDS011;69130;48.724;8.982;2023-04-29T04:04:35;4.40;;;1.98;;
79662;SDS011;69130;48.724;8.982;2023-04-29T04:07:30;2.95;;;1.52;;
79662;SDS011;69130;48.724;8.982;2023-04-29T04:13:15;3.20;;;1.55;;
79662;SDS011;69130;48.724;8.982;2023-04-29T04:16:18;4.80;;;2.22;;
79662;SDS011;69130;48.724;8.982;2023-04-29T04:18:56;3.97;;;2.17;;
79662;SDS011;69130;48.724;8.982;2023-04-29T04:21:34;3.83;;;2.00;;
79662;SDS011;69130;48.724;8.982;2023-04-29T04:24:20;2.85;;;1.70;;
79662;SDS011;69130;48.724;8.982;2023-04-29T04:27:43;3.13;;;1.70;;
79662;SDS011;69130;48.724;8.982;2023-04-29T04:30:37;3.53;;;2.17;;
79662;SDS011;69130;48.724;8.982;2023-04-29T04:33:34;5.32;;;2.13;;
79662;SDS011;69130;48.724;8.982;2023-04-29T04:36:45;3.17;;;1.67;;
79662;SDS011;69130;48.724;8.982;2023-04-29T04:42:47;3.40;;;1.60;;
79662;SDS011;69130;48.724;8.982;2023-04-29T04:45:24;3.38;;;2.00;;
79662;SDS011;69130;48.724;8.982;2023-04-29T04:48:51;4.53;;;2.22;;
79662;SDS011;69130;48.724;8.982;2023-04-29T04:51:44;4.03;;;2.13;;
79662;SDS011;69130;48.724;8.982;2023-04-29T04:54:55;4.75;;;2.22;;
79662;SDS011;69130;48.724;8.982;2023-04-29T05:04:50;3.97;;;1.95;;
79662;SDS011;69130;48.724;8.982;2023-04-29T05:07:15;3.75;;;1.90;;
79662;SDS011;69130;48.724;8.982;2023-04-29T05:09:47;3.92;;;2.55;;
79662;SDS011;69130;48.724;8.982;2023-04-29T05:12:12;3.83;;;2.22;;
79662;SDS011;69130;48.724;8.982;2023-04-29T05:14:38;7.35;;;2.63;;
79662;SDS011;69130;48.724;8.982;2023-04-29T05:17:06;6.22;;;2.25;;
79662;SDS011;69130;48.724;8.982;2023-04-29T05:19:39;4.45;;;2.22;;
79662;SDS011;69130;48.724;8.982;2023-04-29T05:22:21;3.33;;;2.08;;
79662;SDS011;69130;48.724;8.982;2023-04-29T05:24:50;4.35;;;1.73;;
79662;SDS011;69130;48.724;8.982;2023-04-29T05:27:29;5.13;;;2.58;;
79662;SDS011;69130;48.724;8.982;2023-04-29T05:29:56;5.85;;;2.97;;
79662;SDS011;69130;48.724;8.982;2023-04-29T05:32:25;3.65;;;2.35;;
79662;SDS011;69130;48.724;8.982;2023-04-29T05:34:53;5.20;;;2.40;;
79662;SDS011;69130;48.724;8.982;2023-04-29T05:37:24;4.47;;;2.35;;
79662;SDS011;69130;48.724;8.982;2023-04-29T05:39:54;3.67;;;2.10;;
79662;SDS011;69130;48.724;8.982;2023-04-29T05:42:20;3.55;;;2.28;;
79662;SDS011;69130;48.724;8.982;2023-04-29T05:45:02;4.35;;;2.42;;
79662;SDS011;69130;48.724;8.982;2023-04-29T05:47:31;4.43;;;2.28;;
79662;SDS011;69130;48.724;8.982;2023-04-29T05:49:59;5.95;;;2.60;;
79662;SDS011;69130;48.724;8.982;2023-04-29T05:52:33;6.25;;;2.70;;
79662;SDS011;69130;48.724;8.982;2023-04-29T05:55:02;4.47;;;2.47;;
79662;SDS011;69130;48.724;8.982;2023-04-29T06:00:19;4.28;;;2.13;;
79662;SDS011;69130;48.724;8.982;2023-04-29T06:03:12;4.47;;;2.42;;
79662;SDS011;69130;48.724;8.982;2023-04-29T06:06:04;4.03;;;3.00;;
79662;SDS011;69130;48.724;8.982;2023-04-29T06:09:08;6.25;;;2.30;;
79662;SDS011;69130;48.724;8.982;2023-04-29T06:12:07;4.10;;;2.25;;
79662;SDS011;69130;48.724;8.982;2023-04-29T06:15:11;4.22;;;1.95;;
79662;SDS011;69130;48.724;8.982;2023-04-29T06:18:02;3.58;;;1.63;;
79662;SDS011;69130;48.724;8.982;2023-04-29T06:20:56;4.70;;;2.00;;
79662;SDS011;69130;48.724;8.982;2023-04-29T06:23:37;2.88;;;1.70;;
79662;SDS011;69130;48.724;8.982;2023-04-29T06:26:23;2.65;;;1.60;;
79662;SDS011;69130;48.724;8.982;2023-04-29T06:29:26;3.83;;;2.08;;
79662;SDS011;69130;48.724;8.982;2023-04-29T06:32:12;3.67;;;1.42;;
79662;SDS011;69130;48.724;8.982;2023-04-29T06:34:43;3.17;;;2.00;;
79662;SDS011;69130;48.724;8.982;2023-04-29T06:37:09;3.42;;;1.90;;
79662;SDS011;69130;48.724;8.982;2023-04-29T06:39:34;4.55;;;1.70;;
79662;SDS011;69130;48.724;8.982;2023-04-29T06:42:00;2.88;;;1.63;;
79662;SDS011;69130;48.724;8.982;2023-04-29T06:44:25;3.10;;;1.50;;
79662;SDS011;69130;48.724;8.982;2023-04-29T06:46:51;3.75;;;1.98;;
79662;SDS011;69130;48.724;8.982;2023-04-29T06:49:17;2.42;;;1.27;;
79662;SDS011;69130;48.724;8.982;2023-04-29T06:51:42;4.72;;;2.13;;
79662;SDS011;69130;48.724;8.982;2023-04-29T06:54:08;3.28;;;1.58;;
79662;SDS011;69130;48.724;8.982;2023-04-29T06:56:33;3.67;;;1.60;;
79662;SDS011;69130;48.724;8.982;2023-04-29T06:58:58;2.55;;;1.33;;
79662;SDS011;69130;48.724;8.982;2023-04-29T07:01:24;2.85;;;1.42;;
79662;SDS011;69130;48.724;8.982;2023-04-29T07:03:49;2.42;;;1.50;;
79662;SDS011;69130;48.724;8.982;2023-04-29T07:06:15;3.63;;;1.52;;
79662;SDS011;69130;48.724;8.982;2023-04-29T07:08:40;3.42;;;1.20;;
79662;SDS011;69130;48.724;8.982;2023-04-29T07:11:05;1.98;;;1.10;;
79662;SDS011;69130;48.724;8.982;2023-04-29T07:13:31;2.10;;;0.90;;
79662;SDS011;69130;48.724;8.982;2023-04-29T07:15:56;2.17;;;1.30;;
79662;SDS011;69130;48.724;8.982;2023-04-29T07:18:21;2.63;;;1.15;;
79662;SDS011;69130;48.724;8.982;2023-04-29T07:20:47;2.67;;;1.13;;
79662;SDS011;69130;48.724;8.982;2023-04-29T07:23:13;3.63;;;1.38;;
79662;SDS011;69130;48.724;8.982;2023-04-29T07:25:39;2.65;;;1.25;;
79662;SDS011;69130;48.724;8.982;2023-04-29T07:28:05;2.38;;;1.38;;
79662;SDS011;69130;48.724;8.982;2023-04-29T07:30:32;3.22;;;1.73;;
79662;SDS011;69130;48.724;8.982;2023-04-29T07:32:57;2.95;;;1.40;;
79662;SDS011;69130;48.724;8.982;2023-04-29T07:35:23;2.80;;;1.30;;
79662;SDS011;69130;48.724;8.982;2023-04-29T07:37:48;3.22;;;1.63;;
79662;SDS011;69130;48.724;8.982;2023-04-29T07:40:14;3.00;;;1.45;;
79662;SDS011;69130;48.724;8.982;2023-04-29T07:42:39;2.70;;;1.55;;
79662;SDS011;69130;48.724;8.982;2023-04-29T07:45:07;4.93;;;1.60;;
79662;SDS011;69130;48.724;8.982;2023-04-29T07:47:32;3.30;;;1.42;;
79662;SDS011;69130;48.724;8.982;2023-04-29T07:49:58;5.10;;;1.35;;
79662;SDS011;69130;48.724;8.982;2023-04-29T07:52:23;4.60;;;1.52;;
79662;SDS011;69130;48.724;8.982;2023-04-29T07:54:49;2.95;;;1.30;;
79662;SDS011;69130;48.724;8.982;2023-04-29T07:57:14;3.00;;;1.38;;
79662;SDS011;69130;48.724;8.982;2023-04-29T07:59:40;2.88;;;1.30;;
79662;SDS011;69130;48.724;8.982;2023-04-29T08:02:05;3.25;;;1.27;;
79662;SDS011;69130;48.724;8.982;2023-04-29T08:04:30;2.70;;;1.13;;
79662;SDS011;69130;48.724;8.982;2023-04-29T08:06:56;2.65;;;1.10;;
79662;SDS011;69130;48.724;8.982;2023-04-29T08:09:21;1.88;;;1.13;;
79662;SDS011;69130;48.724;8.982;2023-04-29T08:11:47;2.50;;;1.00;;
79662;SDS011;69130;48.724;8.982;2023-04-29T08:14:12;2.30;;;1.40;;
79662;SDS011;69130;48.724;8.982;2023-04-29T08:16:37;2.28;;;1.27;;
79662;SDS011;69130;48.724;8.982;2023-04-29T08:19:03;2.53;;;1.45;;
79662;SDS011;69130;48.724;8.982;2023-04-29T08:21:28;2.53;;;1.00;;
79662;SDS011;69130;48.724;8.982;2023-04-29T08:23:58;4.82;;;1.30;;
79662;SDS011;69130;48.724;8.982;2023-04-29T08:26:24;2.33;;;1.10;;
79662;SDS011;69130;48.724;8.982;2023-04-29T08:28:49;3.22;;;1.08;;
79662;SDS011;69130;48.724;8.982;2023-04-29T08:31:18;3.00;;;1.10;;
79662;SDS011;69130;48.724;8.982;2023-04-29T08:33:44;3.63;;;1.38;;
79662;SDS011;69130;48.724;8.982;2023-04-29T08:36:11;2.40;;;1.23;;
79662;SDS011;69130;48.724;8.982;2023-04-29T08:38:36;2.72;;;1.10;;
79662;SDS011;69130;48.724;8.982;2023-04-29T08:41:02;2.25;;;1.25;;
79662;SDS011;69130;48.724;8.982;2023-04-29T08:43:27;2.80;;;1.20;;
79662;SDS011;69130;48.724;8.982;2023-04-29T08:45:53;2.70;;;1.50;;
79662;SDS011;69130;48.724;8.982;2023-04-29T08:48:19;1.90;;;0.85;;
79662;SDS011;69130;48.724;8.982;2023-04-29T08:50:45;1.95;;;0.88;;
79662;SDS011;69130;48.724;8.982;2023-04-29T08:53:11;2.85;;;1.13;;
79662;SDS011;69130;48.724;8.982;2023-04-29T08:58:06;3.25;;;1.33;;
79662;SDS011;69130;48.724;8.982;2023-04-29T09:00:33;2.17;;;1.20;;
79662;SDS011;69130;48.724;8.982;2023-04-29T09:02:59;2.60;;;1.25;;
79662;SDS011;69130;48.724;8.982;2023-04-29T09:05:34;2.15;;;0.90;;
79662;SDS011;69130;48.724;8.982;2023-04-29T09:08:00;2.05;;;1.23;;
79662;SDS011;69130;48.724;8.982;2023-04-29T09:10:27;2.28;;;1.17;;
79662;SDS011;69130;48.724;8.982;2023-04-29T09:12:56;2.85;;;1.20;;
79662;SDS011;69130;48.724;8.982;2023-04-29T09:15:25;3.17;;;1.20;;
79662;SDS011;69130;48.724;8.982;2023-04-29T09:17:50;2.78;;;1.00;;
79662;SDS011;69130;48.724;8.982;2023-04-29T09:22:57;2.70;;;1.33;;
79662;SDS011;69130;48.724;8.982;2023-04-29T09:25:28;3.20;;;1.25;;
79662;SDS011;69130;48.724;8.982;2023-04-29T09:27:54;3.40;;;1.77;;
79662;SDS011;69130;48.724;8.982;2023-04-29T09:30:20;2.58;;;1.38;;
79662;SDS011;69130;48.724;8.982;2023-04-29T09:33:19;3.15;;;1.30;;
79662;SDS011;69130;48.724;8.982;2023-04-29T09:35:39;2.42;;;1.17;;
79662;SDS011;69130;48.724;8.982;2023-04-29T09:40:35;2.88;;;1.55;;
79662;SDS011;69130;48.724;8.982;2023-04-29T09:43:01;2.58;;;1.25;;
79662;SDS011;69130;48.724;8.982;2023-04-29T09:45:38;3.15;;;1.40;;
79662;SDS011;69130;48.724;8.982;2023-04-29T09:48:06;2.35;;;1.00;;
79662;SDS011;69130;48.724;8.982;2023-04-29T09:50:33;1.73;;;0.90;;
79662;SDS011;69130;48.724;8.982;2023-04-29T09:53:01;2.50;;;1.27;;
79662;SDS011;69130;48.724;8.982;2023-04-29T09:55:27;2.22;;;1.20;;
79662;SDS011;69130;48.724;8.982;2023-04-29T09:57:53;2.40;;;1.33;;
79662;SDS011;69130;48.724;8.982;2023-04-29T10:00:19;1.92;;;1.10;;
79662;SDS011;69130;48.724;8.982;2023-04-29T10:02:45;2.67;;;1.23;;
79662;SDS011;69130;48.724;8.982;2023-04-29T10:05:13;2.70;;;1.10;;
79662;SDS011;69130;48.724;8.982;2023-04-29T10:07:39;3.08;;;1.45;;
79662;SDS011;69130;48.724;8.982;2023-04-29T10:10:06;2.95;;;1.58;;
79662;SDS011;69130;48.724;8.982;2023-04-29T10:12:36;2.72;;;1.42;;
79662;SDS011;69130;48.724;8.982;2023-04-29T10:17:42;2.90;;;1.40;;
79662;SDS011;69130;48.724;8.982;2023-04-29T10:20:09;3.03;;;1.55;;
79662;SDS011;69130;48.724;8.982;2023-04-29T10:22:45;2.67;;;1.20;;
79662;SDS011;69130;48.724;8.982;2023-04-29T10:25:17;2.67;;;1.58;;
79662;SDS011;69130;48.724;8.982;2023-04-29T10:27:44;1.23;;;0.73;;
79662;SDS011;69130;48.724;8.982;2023-04-29T10:30:14;4.13;;;1.23;;
79662;SDS011;69130;48.724;8.982;2023-04-29T10:32:40;2.53;;;1.40;;
79662;SDS011;69130;48.724;8.982;2023-04-29T10:35:11;2.25;;;1.20;;
79662;SDS011;69130;48.724;8.982;2023-04-29T10:37:41;2.90;;;1.40;;
79662;SDS011;69130;48.724;8.982;2023-04-29T10:40:35;2.85;;;1.20;;
79662;SDS011;69130;48.724;8.982;2023-04-29T10:43:06;2.53;;;1.30;;
79662;SDS011;69130;48.724;8.982;2023-04-29T10:45:35;2.22;;;1.13;;
79662;SDS011;69130;48.724;8.982;2023-04-29T10:51:12;2.15;;;1.10;;
79662;SDS011;69130;48.724;8.982;2023-04-29T10:53:12;1.85;;;0.85;;
79662;SDS011;69130;48.724;8.982;2023-04-29T10:55:39;4.82;;;1.30;;
79662;SDS011;69130;48.724;8.982;2023-04-29T10:58:50;2.55;;;1.20;;
79662;SDS011;69130;48.724;8.982;2023-04-29T11:01:00;1.83;;;0.88;;
79662;SDS011;69130;48.724;8.982;2023-04-29T11:06:10;2.13;;;1.17;;
79662;SDS011;69130;48.724;8.982;2023-04-29T11:08:48;2.97;;;1.15;;
79662;SDS011;69130;48.724;8.982;2023-04-29T11:11:24;2.92;;;1.38;;
79662;SDS011;69130;48.724;8.982;2023-04-29T11:13:50;4.60;;;1.70;;
79662;SDS011;69130;48.724;8.982;2023-04-29T11:16:19;3.65;;;1.40;;
79662;SDS011;69130;48.724;8.982;2023-04-29T11:19:07;3.22;;;1.40;;
79662;SDS011;69130;48.724;8.982;2023-04-29T11:21:37;2.38;;;1.08;;
79662;SDS011;69130;48.724;8.982;2023-04-29T11:24:03;2.75;;;1.38;;
79662;SDS011;69130;48.724;8.982;2023-04-29T11:26:33;2.95;;;1.27;;
79662;SDS011;69130;48.724;8.982;2023-04-29T11:29:03;1.90;;;0.98;;
79662;SDS011;69130;48.724;8.982;2023-04-29T11:31:32;3.25;;;1.30;;
79662;SDS011;69130;48.724;8.982;2023-04-29T11:33:58;3.65;;;1.65;;
79662;SDS011;69130;48.724;8.982;2023-04-29T11:36:55;3.00;;;1.40;;
79662;SDS011;69130;48.724;8.982;2023-04-29T11:39:20;3.60;;;1.33;;
79662;SDS011;69130;48.724;8.982;2023-04-29T11:41:47;2.00;;;0.98;;
79662;SDS011;69130;48.724;8.982;2023-04-29T11:44:13;2.95;;;1.08;;
79662;SDS011;69130;48.724;8.982;2023-04-29T11:46:39;2.45;;;1.20;;
79662;SDS011;69130;48.724;8.982;2023-04-29T11:49:05;4.57;;;1.23;;
79662;SDS011;69130;48.724;8.982;2023-04-29T11:51:30;3.15;;;1.00;;
79662;SDS011;69130;48.724;8.982;2023-04-29T11:53:56;1.90;;;0.93;;
79662;SDS011;69130;48.724;8.982;2023-04-29T11:56:22;1.90;;;0.88;;
79662;SDS011;69130;48.724;8.982;2023-04-29T11:58:49;1.92;;;1.13;;
79662;SDS011;69130;48.724;8.982;2023-04-29T12:01:19;1.83;;;1.02;;
79662;SDS011;69130;48.724;8.982;2023-04-29T12:03:55;2.83;;;1.05;;
79662;SDS011;69130;48.724;8.982;2023-04-29T12:06:25;2.55;;;0.90;;
79662;SDS011;69130;48.724;8.982;2023-04-29T12:08:51;2.30;;;0.80;;
79662;SDS011;69130;48.724;8.982;2023-04-29T12:11:25;2.30;;;1.10;;
79662;SDS011;69130;48.724;8.982;2023-04-29T12:13:52;2.20;;;0.90;;
79662;SDS011;69130;48.724;8.982;2023-04-29T12:16:18;2.83;;;1.30;;
79662;SDS011;69130;48.724;8.982;2023-04-29T12:18:44;3.88;;;1.20;;
79662;SDS011;69130;48.724;8.982;2023-04-29T12:21:10;3.28;;;1.63;;
79662;SDS011;69130;48.724;8.982;2023-04-29T12:23:35;4.15;;;1.55;;
79662;SDS011;69130;48.724;8.982;2023-04-29T12:26:01;3.63;;;1.50;;
79662;SDS011;69130;48.724;8.982;2023-04-29T12:28:26;4.65;;;1.90;;
79662;SDS011;69130;48.724;8.982;2023-04-29T12:30:52;3.13;;;2.20;;
79662;SDS011;69130;48.724;8.982;2023-04-29T12:35:46;4.28;;;2.30;;
79662;SDS011;69130;48.724;8.982;2023-04-29T12:38:14;4.95;;;2.38;;
79662;SDS011;69130;48.724;8.982;2023-04-29T12:40:42;3.90;;;2.03;;
79662;SDS011;69130;48.724;8.982;2023-04-29T12:43:09;4.32;;;2.35;;
79662;SDS011;69130;48.724;8.982;2023-04-29T12:45:35;3.25;;;1.95;;
79662;SDS011;69130;48.724;8.982;2023-04-29T12:48:00;4.30;;;2.42;;
79662;SDS011;69130;48.724;8.982;2023-04-29T12:53:04;4.13;;;2.22;;
79662;SDS011;69130;48.724;8.982;2023-04-29T12:55:34;4.88;;;2.78;;
79662;SDS011;69130;48.724;8.982;2023-04-29T12:58:01;4.45;;;2.70;;
79662;SDS011;69130;48.724;8.982;2023-04-29T13:00:27;5.80;;;3.28;;
79662;SDS011;69130;48.724;8.982;2023-04-29T13:02:53;6.43;;;3.22;;
79662;SDS011;69130;48.724;8.982;2023-04-29T13:05:18;4.72;;;2.92;;
79662;SDS011;69130;48.724;8.982;2023-04-29T13:07:44;6.25;;;2.80;;
79662;SDS011;69130;48.724;8.982;2023-04-29T13:10:09;5.88;;;2.78;;
79662;SDS011;69130;48.724;8.982;2023-04-29T13:12:36;4.75;;;2.90;;
79662;SDS011;69130;48.724;8.982;2023-04-29T13:15:02;5.78;;;2.83;;
79662;SDS011;69130;48.724;8.982;2023-04-29T13:17:28;7.07;;;2.90;;
79662;SDS011;69130;48.724;8.982;2023-04-29T13:19:53;6.15;;;2.88;;
79662;SDS011;69130;48.724;8.982;2023-04-29T13:22:19;5.63;;;2.70;;
79662;SDS011;69130;48.724;8.982;2023-04-29T13:24:44;5.85;;;3.40;;
79662;SDS011;69130;48.724;8.982;2023-04-29T13:27:10;7.07;;;2.92;;
79662;SDS011;69130;48.724;8.982;2023-04-29T13:29:35;5.20;;;2.58;;
79662;SDS011;69130;48.724;8.982;2023-04-29T13:32:01;5.00;;;2.20;;
79662;SDS011;69130;48.724;8.982;2023-04-29T13:34:26;6.95;;;3.10;;
79662;SDS011;69130;48.724;8.982;2023-04-29T13:36:51;6.65;;;2.90;;
79662;SDS011;69130;48.724;8.982;2023-04-29T13:39:17;5.35;;;3.35;;
79662;SDS011;69130;48.724;8.982;2023-04-29T13:41:43;7.35;;;3.67;;
79662;SDS011;69130;48.724;8.982;2023-04-29T13:44:09;4.38;;;2.55;;
79662;SDS011;69130;48.724;8.982;2023-04-29T13:46:35;5.45;;;3.30;;
79662;SDS011;69130;48.724;8.982;2023-04-29T13:49:00;6.05;;;3.22;;
79662;SDS011;69130;48.724;8.982;2023-04-29T13:51:28;6.53;;;3.90;;
79662;SDS011;69130;48.724;8.982;2023-04-29T13:53:53;7.45;;;3.92;;
79662;SDS011;69130;48.724;8.982;2023-04-29T13:56:18;6.50;;;4.40;;
79662;SDS011;69130;48.724;8.982;2023-04-29T13:58:44;5.80;;;3.42;;
79662;SDS011;69130;48.724;8.982;2023-04-29T14:01:11;6.82;;;3.97;;
79662;SDS011;69130;48.724;8.982;2023-04-29T14:03:37;6.43;;;3.90;;
79662;SDS011;69130;48.724;8.982;2023-04-29T14:06:02;6.60;;;3.75;;
79662;SDS011;69130;48.724;8.982;2023-04-29T14:08:28;7.60;;;4.00;;
79662;SDS011;69130;48.724;8.982;2023-04-29T14:10:53;6.73;;;3.90;;
79662;SDS011;69130;48.724;8.982;2023-04-29T14:13:18;8.45;;;4.65;;
79662;SDS011;69130;48.724;8.982;2023-04-29T14:15:44;6.95;;;3.60;;
79662;SDS011;69130;48.724;8.982;2023-04-29T14:18:09;8.95;;;4.13;;
79662;SDS011;69130;48.724;8.982;2023-04-29T14:20:35;9.95;;;4.50;;
79662;SDS011;69130;48.724;8.982;2023-04-29T14:23:01;7.55;;;3.80;;
79662;SDS011;69130;48.724;8.982;2023-04-29T14:25:26;6.90;;;3.78;;
79662;SDS011;69130;48.724;8.982;2023-04-29T14:27:52;6.95;;;4.32;;
79662;SDS011;69130;48.724;8.982;2023-04-29T14:30:17;7.03;;;3.97;;
79662;SDS011;69130;48.724;8.982;2023-04-29T14:32:43;6.55;;;3.92;;
79662;SDS011;69130;48.724;8.982;2023-04-29T14:38:44;7.35;;;4.00;;
79662;SDS011;69130;48.724;8.982;2023-04-29T14:41:09;8.73;;;3.97;;
79662;SDS011;69130;48.724;8.982;2023-04-29T14:43:35;8.20;;;4.23;;
79662;SDS011;69130;48.724;8.982;2023-04-29T14:46:00;6.80;;;3.95;;
79662;SDS011;69130;48.724;8.982;2023-04-29T14:48:25;8.55;;;4.57;;
79662;SDS011;69130;48.724;8.982;2023-04-29T14:50:51;6.03;;;3.65;;
79662;SDS011;69130;48.724;8.982;2023-04-29T14:53:16;7.00;;;3.97;;
79662;SDS011;69130;48.724;8.982;2023-04-29T14:55:42;8.95;;;4.43;;
79662;SDS011;69130;48.724;8.982;2023-04-29T14:58:07;8.25;;;4.07;;
79662;SDS011;69130;48.724;8.982;2023-04-29T15:00:34;6.65;;;3.60;;
79662;SDS011;69130;48.724;8.982;2023-04-29T15:03:00;7.72;;;4.55;;
79662;SDS011;69130;48.724;8.982;2023-04-29T15:05:25;6.28;;;4.03;;
79662;SDS011;69130;48.724;8.982;2023-04-29T15:07:50;8.70;;;3.95;;
79662;SDS011;69130;48.724;8.982;2023-04-29T15:10:16;8.23;;;4.25;;
79662;SDS011;69130;48.724;8.982;2023-04-29T15:12:41;9.52;;;4.80;;
79662;SDS011;69130;48.724;8.982;2023-04-29T15:15:07;15.05;;;7.45;;
79662;SDS011;69130;48.724;8.982;2023-04-29T15:17:33;8.07;;;3.97;;
79662;SDS011;69130;48.724;8.982;2023-04-29T15:19:58;8.02;;;4.32;;
79662;SDS011;69130;48.724;8.982;2023-04-29T15:22:23;6.57;;;4.00;;
79662;SDS011;69130;48.724;8.982;2023-04-29T15:24:49;9.02;;;4.72;;
79662;SDS011;69130;48.724;8.982;2023-04-29T15:27:16;7.53;;;4.20;;
79662;SDS011;69130;48.724;8.982;2023-04-29T15:29:41;9.25;;;4.85;;
79662;SDS011;69130;48.724;8.982;2023-04-29T15:32:07;8.65;;;4.50;;
79662;SDS011;69130;48.724;8.982;2023-04-29T15:34:34;12.55;;;4.93;;
79662;SDS011;69130;48.724;8.982;2023-04-29T15:36:59;8.55;;;4.95;;
79662;SDS011;69130;48.724;8.982;2023-04-29T15:39:25;8.95;;;4.28;;
79662;SDS011;69130;48.724;8.982;2023-04-29T15:41:50;7.82;;;4.22;;
79662;SDS011;69130;48.724;8.982;2023-04-29T15:44:16;6.88;;;4.13;;
79662;SDS011;69130;48.724;8.982;2023-04-29T15:46:41;9.10;;;4.90;;
79662;SDS011;69130;48.724;8.982;2023-04-29T15:49:07;9.00;;;4.15;;
79662;SDS011;69130;48.724;8.982;2023-04-29T15:51:32;10.73;;;4.95;;
79662;SDS011;69130;48.724;8.982;2023-04-29T15:53:57;9.43;;;4.67;;
79662;SDS011;69130;48.724;8.982;2023-04-29T15:56:23;8.00;;;3.58;;
79662;SDS011;69130;48.724;8.982;2023-04-29T15:58:49;8.65;;;4.38;;
79662;SDS011;69130;48.724;8.982;2023-04-29T16:01:15;9.18;;;4.28;;
79662;SDS011;69130;48.724;8.982;2023-04-29T16:03:40;8.10;;;3.40;;
79662;SDS011;69130;48.724;8.982;2023-04-29T16:06:06;7.00;;;3.67;;
79662;SDS011;69130;48.724;8.982;2023-04-29T16:08:32;10.98;;;4.38;;
79662;SDS011;69130;48.724;8.982;2023-04-29T16:10:57;8.30;;;4.47;;
79662;SDS011;69130;48.724;8.982;2023-04-29T16:13:22;6.43;;;3.75;;
79662;SDS011;69130;48.724;8.982;2023-04-29T16:15:48;8.98;;;4.15;;
79662;SDS011;69130;48.724;8.982;2023-04-29T16:18:13;8.48;;;4.18;;
79662;SDS011;69130;48.724;8.982;2023-04-29T16:20:41;9.90;;;4.45;;
79662;SDS011;69130;48.724;8.982;2023-04-29T16:23:07;9.27;;;4.15;;
79662;SDS011;69130;48.724;8.982;2023-04-29T16:25:32;8.57;;;4.05;;
79662;SDS011;69130;48.724;8.982;2023-04-29T16:27:57;9.95;;;4.63;;
79662;SDS011;69130;48.724;8.982;2023-04-29T16:30:23;8.98;;;5.72;;
79662;SDS011;69130;48.724;8.982;2023-04-29T16:32:48;8.40;;;4.13;;
79662;SDS011;69130;48.724;8.982;2023-04-29T16:35:13;8.20;;;3.60;;
79662;SDS011;69130;48.724;8.982;2023-04-29T16:37:39;8.82;;;4.03;;
79662;SDS011;69130;48.724;8.982;2023-04-29T16:40:04;6.97;;;3.63;;
79662;SDS011;69130;48.724;8.982;2023-04-29T16:42:30;7.53;;;3.85;;
79662;SDS011;69130;48.724;8.982;2023-04-29T16:44:56;6.45;;;3.13;;
79662;SDS011;69130;48.724;8.982;2023-04-29T16:47:21;8.43;;;4.28;;
79662;SDS011;69130;48.724;8.982;2023-04-29T16:49:48;7.65;;;4.20;;
79662;SDS011;69130;48.724;8.982;2023-04-29T16:52:13;8.70;;;4.18;;
79662;SDS011;69130;48.724;8.982;2023-04-29T16:54:39;5.97;;;3.47;;
79662;SDS011;69130;48.724;8.982;2023-04-29T16:57:05;8.18;;;2.92;;
79662;SDS011;69130;48.724;8.982;2023-04-29T16:59:30;6.47;;;3.42;;
79662;SDS011;69130;48.724;8.982;2023-04-29T17:01:56;7.70;;;4.07;;
79662;SDS011;69130;48.724;8.982;2023-04-29T17:04:21;7.25;;;3.30;;
79662;SDS011;69130;48.724;8.982;2023-04-29T17:06:47;7.35;;;3.95;;
79662;SDS011;69130;48.724;8.982;2023-04-29T17:09:12;6.70;;;3.17;;
79662;SDS011;69130;48.724;8.982;2023-04-29T17:11:39;7.32;;;3.33;;
79662;SDS011;69130;48.724;8.982;2023-04-29T17:14:05;6.57;;;2.95;;
79662;SDS011;69130;48.724;8.982;2023-04-29T17:16:30;6.28;;;2.75;;